Time;durP1;ratioP1;P1;durP2;ratioP2;P2;SDS_P1;SDS_P2;PMS_P1;PMS_P2;Temp;Humidity;BMP_temperature;BMP_pressure;BME280_temperature;BME280_humidity;BME280_pressure;Samples;Min_cycle;Max_cycle;Signal;HPM_P1;HPM_P2
2023/05/28 00:01:06;;;;;;;9.35;4.10;;;;;20.80;101998.00;;;;5090011;28;20221;-79
2023/05/28 00:03:35;;;;;;;7.65;3.08;;;;;20.80;102005.00;;;;5089810;28;20695;-80
2023/05/28 00:06:03;;;;;;;7.53;3.42;;;;;20.70;102001.00;;;;5089432;28;20205;-79
2023/05/28 00:08:32;;;;;;;9.70;4.03;;;;;20.70;102001.00;;;;5089929;28;20582;-80
2023/05/28 00:11:00;;;;;;;8.45;3.35;;;;;20.70;102002.00;;;;5089643;28;20237;-80
2023/05/28 00:13:28;;;;;;;8.05;3.65;;;;;20.70;102001.00;;;;5089999;28;20264;-80
2023/05/28 00:15:56;;;;;;;9.82;3.30;;;;;20.60;101999.00;;;;5089397;28;20206;-80
2023/05/28 00:18:23;;;;;;;8.48;3.00;;;;;20.60;101995.00;;;;5089931;28;20213;-79
2023/05/28 00:20:51;;;;;;;12.93;3.47;;;;;20.60;102003.00;;;;5089609;28;20222;-80
2023/05/28 00:23:18;;;;;;;9.07;4.10;;;;;20.50;101991.00;;;;5089107;28;20202;-79
2023/05/28 00:25:47;;;;;;;10.30;3.97;;;;;20.50;101993.00;;;;5089786;28;20210;-79
2023/05/28 00:28:14;;;;;;;8.50;3.53;;;;;20.50;101993.00;;;;5089639;28;20206;-79
2023/05/28 00:30:42;;;;;;;9.32;3.50;;;;;20.50;101994.00;;;;5089304;28;20209;-79
2023/05/28 00:33:09;;;;;;;7.60;3.20;;;;;20.40;102003.00;;;;5089000;28;20237;-79
2023/05/28 00:35:36;;;;;;;5.15;2.92;;;;;20.40;102004.00;;;;5089546;28;20202;-79
2023/05/28 00:38:03;;;;;;;8.85;3.67;;;;;20.40;102005.00;;;;5089429;28;20214;-79
2023/05/28 00:40:31;;;;;;;9.27;3.83;;;;;20.30;102010.00;;;;5088749;28;20213;-79
2023/05/28 00:43:00;;;;;;;10.70;3.38;;;;;20.30;101999.00;;;;5088864;28;20209;-80
2023/05/28 00:45:27;;;;;;;7.78;3.40;;;;;20.30;101991.00;;;;5089540;28;20217;-79
2023/05/28 00:47:55;;;;;;;8.38;3.88;;;;;20.20;101989.00;;;;5089119;28;20201;-79
2023/05/28 00:50:22;;;;;;;9.00;3.38;;;;;20.20;101976.00;;;;5088837;28;20214;-79
2023/05/28 00:52:51;;;;;;;9.45;3.63;;;;;20.20;101988.00;;;;5089172;28;20198;-79
2023/05/28 00:55:19;;;;;;;9.95;4.05;;;;;20.10;101978.00;;;;5088797;28;20233;-80
2023/05/28 00:57:48;;;;;;;8.00;3.72;;;;;20.10;101983.00;;;;5089415;28;20682;-80
2023/05/28 01:00:18;;;;;;;9.25;3.75;;;;;20.10;101975.00;;;;5088931;28;20206;-79
2023/05/28 01:02:45;;;;;;;8.98;3.85;;;;;20.10;101972.00;;;;5088529;28;20228;-79
2023/05/28 01:05:14;;;;;;;8.13;3.50;;;;;20.00;101979.00;;;;5088449;28;20202;-79
2023/05/28 01:07:41;;;;;;;8.18;3.25;;;;;20.00;101971.00;;;;5088273;28;20652;-79
2023/05/28 01:10:09;;;;;;;9.45;3.90;;;;;20.00;101968.00;;;;5088651;28;20201;-79
2023/05/28 01:12:38;;;;;;;8.65;3.38;;;;;19.90;101969.00;;;;5088746;28;20202;-80
2023/05/28 01:15:07;;;;;;;8.85;3.55;;;;;19.90;101968.00;;;;5088604;28;20208;-79
2023/05/28 01:17:38;;;;;;;8.27;3.58;;;;;19.90;101968.00;;;;5088170;28;20676;-80
2023/05/28 01:20:10;;;;;;;9.43;3.63;;;;;19.90;101960.00;;;;5088251;28;20210;-80
2023/05/28 01:22:39;;;;;;;9.18;4.13;;;;;19.80;101950.00;;;;5088678;28;20226;-79
2023/05/28 01:25:11;;;;;;;8.73;3.47;;;;;19.80;101944.00;;;;5088543;28;20229;-79
2023/05/28 01:27:40;;;;;;;7.28;3.53;;;;;19.80;101950.00;;;;5088942;28;20294;-79
2023/05/28 01:30:09;;;;;;;6.53;3.92;;;;;19.80;101944.00;;;;5088113;28;20556;-79
2023/05/28 01:32:37;;;;;;;8.18;3.40;;;;;19.80;101942.00;;;;5088192;28;20233;-79
2023/05/28 01:35:06;;;;;;;8.50;3.72;;;;;19.80;101945.00;;;;5088548;28;20210;-80
2023/05/28 01:37:35;;;;;;;10.05;3.75;;;;;19.70;101949.00;;;;5088939;28;20206;-80
2023/05/28 01:40:03;;;;;;;8.60;3.90;;;;;19.70;101942.00;;;;5088077;28;20664;-79
2023/05/28 01:42:34;;;;;;;11.82;4.20;;;;;19.70;101933.00;;;;5088943;28;20237;-79
2023/05/28 01:45:03;;;;;;;9.05;3.72;;;;;19.70;101936.00;;;;5087579;28;20198;-79
2023/05/28 01:47:31;;;;;;;9.98;4.18;;;;;19.60;101947.00;;;;5087999;28;20198;-79
2023/05/28 01:49:58;;;;;;;9.07;3.45;;;;;19.60;101942.00;;;;5088425;28;20222;-78
2023/05/28 01:52:26;;;;;;;8.50;3.65;;;;;19.60;101945.00;;;;5087162;28;20214;-79
2023/05/28 01:54:53;;;;;;;11.52;4.13;;;;;19.60;101940.00;;;;5087769;28;20611;-79
2023/05/28 01:57:21;;;;;;;10.18;3.95;;;;;19.60;101944.00;;;;5088438;28;20197;-79
2023/05/28 01:59:49;;;;;;;9.88;4.32;;;;;19.50;101947.00;;;;5088986;28;20194;-79
2023/05/28 02:02:17;;;;;;;15.07;3.40;;;;;19.50;101953.00;;;;5088607;28;20225;-79
2023/05/28 02:04:44;;;;;;;12.75;4.10;;;;;19.50;101953.00;;;;5088500;28;20717;-80
2023/05/28 02:07:12;;;;;;;8.00;3.33;;;;;19.50;101961.00;;;;5087842;28;20208;-79
2023/05/28 02:09:39;;;;;;;10.43;3.50;;;;;19.40;101952.00;;;;5088583;28;20299;-79
2023/05/28 02:12:07;;;;;;;16.55;4.88;;;;;19.40;101959.00;;;;5087988;28;20198;-79
2023/05/28 02:14:34;;;;;;;7.78;3.50;;;;;19.40;101960.00;;;;5088597;28;20202;-79
2023/05/28 02:17:03;;;;;;;7.88;3.53;;;;;19.40;101956.00;;;;5090073;28;20456;-80
2023/05/28 02:19:32;;;;;;;7.50;3.70;;;;;19.40;101952.00;;;;5092102;28;20198;-79
2023/05/28 02:21:59;;;;;;;9.50;4.10;;;;;19.30;101949.00;;;;5092621;28;20236;-79
2023/05/28 02:24:27;;;;;;;8.25;3.97;;;;;19.30;101944.00;;;;5091719;28;20229;-79
2023/05/28 02:26:54;;;;;;;8.50;3.63;;;;;19.30;101938.00;;;;5091640;28;20594;-80
2023/05/28 02:29:21;;;;;;;11.68;3.25;;;;;19.30;101945.00;;;;5091000;28;20216;-80
2023/05/28 02:31:49;;;;;;;10.35;4.22;;;;;19.30;101947.00;;;;5092227;28;20219;-79
2023/05/28 02:34:17;;;;;;;6.82;3.85;;;;;19.20;101951.00;;;;5092125;28;20567;-79
2023/05/28 02:36:45;;;;;;;11.73;4.30;;;;;19.20;101952.00;;;;5091803;28;20601;-79
2023/05/28 02:39:13;;;;;;;9.15;3.38;;;;;19.20;101948.00;;;;5091314;28;20213;-79
2023/05/28 02:41:40;;;;;;;8.32;3.92;;;;;19.20;101939.00;;;;5091972;28;20672;-80
2023/05/28 02:44:09;;;;;;;9.02;3.97;;;;;19.20;101942.00;;;;5085979;28;20584;-80
2023/05/28 02:46:36;;;;;;;9.10;3.35;;;;;19.10;101943.00;;;;5091430;28;20198;-79
2023/05/28 02:49:04;;;;;;;9.30;3.80;;;;;19.10;101942.00;;;;5090745;28;20202;-79
2023/05/28 02:51:32;;;;;;;11.65;3.55;;;;;19.10;101942.00;;;;5091451;28;20271;-80
2023/05/28 02:54:00;;;;;;;10.77;3.92;;;;;19.10;101946.00;;;;5091020;28;20209;-79
2023/05/28 02:56:27;;;;;;;6.45;3.05;;;;;19.10;101954.00;;;;5091294;28;20675;-79
2023/05/28 02:58:54;;;;;;;9.10;4.00;;;;;19.10;101952.00;;;;5090969;28;20206;-79
2023/05/28 03:01:21;;;;;;;8.27;4.28;;;;;19.10;101949.00;;;;5090350;28;20205;-79
2023/05/28 03:03:49;;;;;;;9.02;4.25;;;;;19.10;101949.00;;;;5091554;28;20198;-79
2023/05/28 03:06:16;;;;;;;7.05;3.60;;;;;19.00;101948.00;;;;5090784;28;20190;-79
2023/05/28 03:08:45;;;;;;;8.88;3.65;;;;;19.00;101959.00;;;;5091698;28;20198;-79
2023/05/28 03:11:12;;;;;;;6.75;3.80;;;;;19.00;101955.00;;;;5090391;28;20206;-79
2023/05/28 03:13:39;;;;;;;9.27;4.13;;;;;19.00;101955.00;;;;5090451;28;20202;-79
2023/05/28 03:16:07;;;;;;;8.07;3.55;;;;;19.00;101954.00;;;;5091727;28;20224;-79
2023/05/28 03:18:35;;;;;;;10.95;4.68;;;;;19.00;101957.00;;;;5090828;28;20206;-79
2023/05/28 03:21:02;;;;;;;8.77;3.85;;;;;19.00;101956.00;;;;5090626;28;20198;-80
2023/05/28 03:23:29;;;;;;;7.70;3.70;;;;;19.00;101957.00;;;;5090373;28;20229;-79
2023/05/28 03:25:58;;;;;;;11.52;4.05;;;;;19.00;101955.00;;;;5090588;28;20696;-79
2023/05/28 03:28:25;;;;;;;7.20;4.05;;;;;19.00;101953.00;;;;5090141;28;20202;-79
2023/05/28 03:30:54;;;;;;;7.70;3.80;;;;;19.00;101954.00;;;;5090619;28;20579;-80
2023/05/28 03:33:22;;;;;;;6.38;4.07;;;;;19.00;101948.00;;;;5090501;28;20684;-79
2023/05/28 03:35:49;;;;;;;4.20;3.63;;;;;18.90;101943.00;;;;5090494;28;20198;-79
2023/05/28 03:38:17;;;;;;;12.10;3.55;;;;;18.90;101944.00;;;;5089826;28;20581;-78
2023/05/28 03:40:45;;;;;;;6.57;3.72;;;;;18.90;101951.00;;;;5091172;28;20217;-78
2023/05/28 03:43:13;;;;;;;5.28;3.42;;;;;18.90;101960.00;;;;5091027;28;20222;-79
2023/05/28 03:45:40;;;;;;;10.65;3.92;;;;;18.90;101957.00;;;;5091097;28;20198;-79
2023/05/28 03:48:08;;;;;;;12.50;4.03;;;;;18.90;101959.00;;;;5090556;28;20198;-79
2023/05/28 03:50:36;;;;;;;8.13;3.65;;;;;18.90;101966.00;;;;5091758;28;20225;-80
2023/05/28 03:53:03;;;;;;;9.25;3.25;;;;;18.90;101970.00;;;;5090165;28;20325;-79
2023/05/28 03:55:30;;;;;;;12.40;4.55;;;;;18.80;101972.00;;;;5090736;28;20194;-79
2023/05/28 03:57:58;;;;;;;8.15;4.22;;;;;18.80;101964.00;;;;5090591;28;20209;-79
2023/05/28 04:00:26;;;;;;;7.22;3.40;;;;;18.80;101971.00;;;;5090806;28;20209;-80
2023/05/28 04:02:53;;;;;;;11.65;3.45;;;;;18.80;101963.00;;;;5090186;28;20700;-79
2023/05/28 04:05:21;;;;;;;7.88;3.83;;;;;18.80;101971.00;;;;5089821;28;20186;-78
2023/05/28 04:07:49;;;;;;;8.52;4.03;;;;;18.80;101968.00;;;;5090071;28;20209;-79
2023/05/28 04:10:16;;;;;;;6.03;3.92;;;;;18.80;101968.00;;;;5089819;28;20607;-78
2023/05/28 04:12:43;;;;;;;7.40;3.63;;;;;18.80;101972.00;;;;5089948;28;20591;-78
2023/05/28 04:15:11;;;;;;;8.65;3.17;;;;;18.70;101971.00;;;;5089306;28;20209;-79
2023/05/28 04:17:40;;;;;;;7.32;3.53;;;;;18.70;101973.00;;;;5089899;28;20202;-79
2023/05/28 04:20:09;;;;;;;6.75;3.85;;;;;18.70;101975.00;;;;5089812;28;20210;-79
2023/05/28 04:22:36;;;;;;;14.85;4.70;;;;;18.70;101969.00;;;;5090076;28;20230;-79
2023/05/28 04:25:04;;;;;;;9.60;4.18;;;;;18.80;101970.00;;;;5088925;28;20194;-79
2023/05/28 04:27:32;;;;;;;7.72;3.42;;;;;18.80;101970.00;;;;5089135;28;20322;-79
2023/05/28 04:29:59;;;;;;;10.10;3.75;;;;;18.80;101970.00;;;;5089805;28;20591;-79
2023/05/28 04:32:27;;;;;;;8.85;3.97;;;;;18.80;101971.00;;;;5089535;28;20730;-80
2023/05/28 04:34:56;;;;;;;8.57;4.03;;;;;18.80;101974.00;;;;5089904;28;21102;-78
2023/05/28 04:37:24;;;;;;;7.10;3.95;;;;;18.80;101980.00;;;;5090100;28;20206;-78
2023/05/28 04:39:52;;;;;;;5.95;3.88;;;;;18.80;101984.00;;;;5088665;28;20271;-79
2023/05/28 04:42:19;;;;;;;10.18;6.70;;;;;18.80;101988.00;;;;5089849;28;20602;-79
2023/05/28 04:44:47;;;;;;;11.55;7.15;;;;;18.80;101991.00;;;;5089598;28;20186;-79
2023/05/28 04:47:14;;;;;;;9.40;5.78;;;;;18.80;101980.00;;;;5089529;28;20205;-78
2023/05/28 04:49:42;;;;;;;10.20;5.65;;;;;18.80;101981.00;;;;5089509;28;20201;-79
2023/05/28 04:52:10;;;;;;;8.90;5.43;;;;;18.80;101973.00;;;;5088990;28;20202;-79
2023/05/28 04:54:38;;;;;;;11.10;5.10;;;;;18.80;101979.00;;;;5089820;28;20298;-79
2023/05/28 04:57:05;;;;;;;8.30;4.28;;;;;18.90;101982.00;;;;5090047;28;20209;-79
2023/05/28 04:59:33;;;;;;;9.60;4.72;;;;;18.90;101989.00;;;;5089165;28;20202;-79
2023/05/28 05:02:01;;;;;;;9.13;4.00;;;;;18.90;101985.00;;;;5089739;28;20233;-79
2023/05/28 05:04:28;;;;;;;9.63;4.05;;;;;18.90;101985.00;;;;5089142;28;20205;-80
2023/05/28 05:06:55;;;;;;;7.40;3.80;;;;;18.90;101980.00;;;;5089142;28;20206;-79
2023/05/28 05:09:24;;;;;;;7.50;4.05;;;;;18.90;101979.00;;;;5089553;28;20202;-79
2023/05/28 05:11:52;;;;;;;8.68;3.67;;;;;18.90;101983.00;;;;5088852;28;20198;-79
2023/05/28 05:14:19;;;;;;;14.38;5.03;;;;;18.90;101988.00;;;;5089601;28;20198;-79
2023/05/28 05:16:46;;;;;;;9.43;4.57;;;;;18.90;101994.00;;;;5089126;28;20787;-79
2023/05/28 05:19:14;;;;;;;7.07;4.30;;;;;19.00;101996.00;;;;5088950;28;20228;-79
2023/05/28 05:21:41;;;;;;;8.27;3.88;;;;;19.00;101996.00;;;;5089655;28;20586;-79
2023/05/28 05:24:08;;;;;;;11.93;4.50;;;;;19.00;102000.00;;;;5088513;28;20226;-79
2023/05/28 05:26:37;;;;;;;7.00;3.70;;;;;18.90;102000.00;;;;5089272;28;20255;-79
2023/05/28 05:29:04;;;;;;;12.02;4.40;;;;;19.00;101993.00;;;;5089028;28;20217;-80
2023/05/28 05:31:31;;;;;;;7.78;4.75;;;;;19.00;101999.00;;;;5088750;28;20699;-79
2023/05/28 05:33:59;;;;;;;6.65;3.72;;;;;19.00;101999.00;;;;5088465;28;20257;-79
2023/05/28 05:36:26;;;;;;;6.80;3.58;;;;;19.10;101993.00;;;;5089128;28;20206;-79
2023/05/28 05:38:53;;;;;;;7.65;4.10;;;;;19.10;101998.00;;;;5088636;28;20232;-80
2023/05/28 05:41:21;;;;;;;10.05;4.93;;;;;19.20;101995.00;;;;5087581;28;20212;-79
2023/05/28 05:43:50;;;;;;;10.77;4.82;;;;;19.20;102001.00;;;;5085086;28;20291;-79
2023/05/28 05:46:17;;;;;;;6.72;4.07;;;;;19.30;102000.00;;;;5087838;28;20198;-78
2023/05/28 05:48:44;;;;;;;7.32;4.28;;;;;19.40;102001.00;;;;5089203;28;20202;-79
2023/05/28 05:51:16;;;;;;;8.25;3.95;;;;;19.50;102001.00;;;;5087764;28;20609;-79
2023/05/28 05:53:44;;;;;;;8.45;3.92;;;;;19.50;102000.00;;;;5088233;28;20198;-79
2023/05/28 05:56:11;;;;;;;7.68;3.50;;;;;19.60;101987.00;;;;5088365;28;20213;-79
2023/05/28 05:58:38;;;;;;;5.75;4.00;;;;;19.70;101991.00;;;;5088676;28;20198;-80
2023/05/28 06:01:09;;;;;;;6.50;3.70;;;;;19.70;101990.00;;;;5088928;28;20205;-79
2023/05/28 06:03:37;;;;;;;10.18;4.43;;;;;19.80;101996.00;;;;5088784;28;20317;-79
2023/05/28 06:06:06;;;;;;;6.32;3.92;;;;;19.90;101996.00;;;;5088473;28;20247;-79
2023/05/28 06:08:34;;;;;;;8.18;4.43;;;;;20.00;102000.00;;;;5089066;28;20241;-79
2023/05/28 06:11:02;;;;;;;8.27;4.30;;;;;20.10;102008.00;;;;5088413;28;20202;-80
2023/05/28 06:13:29;;;;;;;7.80;3.90;;;;;20.10;102011.00;;;;5088002;28;20688;-79
2023/05/28 06:15:57;;;;;;;8.35;4.57;;;;;20.20;102019.00;;;;5088810;28;20578;-79
2023/05/28 06:18:25;;;;;;;5.07;3.33;;;;;20.30;102017.00;;;;5087254;28;20663;-80
2023/05/28 06:20:53;;;;;;;7.40;3.90;;;;;20.40;102011.00;;;;5088190;28;20578;-80
2023/05/28 06:23:20;;;;;;;10.90;4.30;;;;;20.50;102012.00;;;;5088262;28;20744;-80
2023/05/28 06:25:48;;;;;;;7.90;3.90;;;;;20.60;102010.00;;;;5088400;28;20559;-79
2023/05/28 06:28:15;;;;;;;8.85;4.32;;;;;20.70;102006.00;;;;5088066;28;20566;-80
2023/05/28 06:30:42;;;;;;;8.73;4.68;;;;;20.80;102011.00;;;;5088466;28;20583;-78
2023/05/28 06:33:10;;;;;;;8.40;4.15;;;;;20.90;102019.00;;;;5088102;28;20988;-79
2023/05/28 06:35:38;;;;;;;7.63;4.53;;;;;20.90;102006.00;;;;5088474;28;20217;-79
2023/05/28 06:38:06;;;;;;;8.93;4.10;;;;;21.00;102013.00;;;;5088170;28;20205;-79
2023/05/28 06:40:33;;;;;;;10.55;4.47;;;;;21.10;102007.00;;;;5087834;28;20676;-79
2023/05/28 06:43:01;;;;;;;13.30;4.70;;;;;21.20;102008.00;;;;5088271;28;20228;-79
2023/05/28 06:45:28;;;;;;;7.15;3.63;;;;;21.30;102006.00;;;;5088000;28;20204;-79
2023/05/28 06:47:55;;;;;;;7.07;3.72;;;;;21.40;102005.00;;;;5088240;28;20622;-79
2023/05/28 06:50:23;;;;;;;5.43;3.50;;;;;21.50;102010.00;;;;5087608;28;20586;-79
2023/05/28 06:52:51;;;;;;;6.70;3.70;;;;;21.60;101996.00;;;;5087870;28;20680;-78
2023/05/28 06:55:19;;;;;;;5.90;3.72;;;;;21.70;102001.00;;;;5088173;28;20691;-79
2023/05/28 06:57:46;;;;;;;9.85;3.95;;;;;21.80;102002.00;;;;5087757;28;20212;-79
2023/05/28 07:00:16;;;;;;;9.57;3.90;;;;;21.90;101998.00;;;;5086769;28;20206;-79
2023/05/28 07:02:44;;;;;;;7.47;4.10;;;;;22.00;101999.00;;;;5088502;28;20609;-80
2023/05/28 07:05:12;;;;;;;7.32;3.67;;;;;22.10;102007.00;;;;5070500;28;20199;-80
2023/05/28 07:07:39;;;;;;;8.27;3.45;;;;;22.20;102004.00;;;;5071199;28;20210;-80
2023/05/28 07:10:09;;;;;;;5.90;3.40;;;;;22.20;102010.00;;;;5070623;28;20206;-80
2023/05/28 07:12:37;;;;;;;5.70;3.50;;;;;22.40;102013.00;;;;5070765;28;20260;-80
2023/05/28 07:15:06;;;;;;;7.78;3.53;;;;;22.40;102025.00;;;;5072243;28;20211;-80
2023/05/28 07:17:33;;;;;;;7.32;3.30;;;;;22.50;102026.00;;;;5090585;28;20198;-80
2023/05/28 07:20:00;;;;;;;6.30;3.35;;;;;22.60;102025.00;;;;5090198;28;20631;-79
2023/05/28 07:22:28;;;;;;;9.40;3.22;;;;;22.70;102025.00;;;;5090846;28;20213;-80
2023/05/28 07:24:55;;;;;;;8.73;4.03;;;;;22.80;102028.00;;;;5090176;28;20221;-80
2023/05/28 07:27:24;;;;;;;6.60;3.50;;;;;22.80;102031.00;;;;5090177;28;20556;-81
2023/05/28 07:29:51;;;;;;;8.80;4.05;;;;;22.90;102028.00;;;;5090404;28;20210;-80
2023/05/28 07:32:18;;;;;;;7.05;3.33;;;;;23.00;102029.00;;;;5089793;28;20226;-80
2023/05/28 07:34:45;;;;;;;6.53;3.55;;;;;23.10;102026.00;;;;5090748;28;20210;-79
2023/05/28 07:37:13;;;;;;;7.90;3.50;;;;;23.20;102033.00;;;;5090054;28;20202;-80
2023/05/28 07:39:40;;;;;;;6.28;3.35;;;;;23.30;102034.00;;;;5090430;28;20213;-80
2023/05/28 07:42:07;;;;;;;7.75;3.70;;;;;23.40;102033.00;;;;5090584;28;20213;-80
2023/05/28 07:44:36;;;;;;;7.40;3.30;;;;;23.40;102037.00;;;;5089955;28;20747;-80
2023/05/28 07:47:03;;;;;;;8.77;3.53;;;;;23.50;102033.00;;;;5089936;28;20194;-80
2023/05/28 07:49:30;;;;;;;7.90;3.40;;;;;23.70;102036.00;;;;5090131;28;20199;-80
2023/05/28 07:51:58;;;;;;;5.43;3.00;;;;;23.80;102036.00;;;;5089457;28;20214;-80
2023/05/28 07:54:25;;;;;;;12.68;4.13;;;;;23.90;102043.00;;;;5089862;28;20205;-79
2023/05/28 07:56:52;;;;;;;8.23;3.78;;;;;24.00;102042.00;;;;5089752;28;20194;-79
2023/05/28 07:59:21;;;;;;;7.10;3.63;;;;;24.00;102042.00;;;;5089792;28;20230;-80
2023/05/28 08:01:50;;;;;;;6.13;3.15;;;;;24.10;102038.00;;;;5090333;28;20205;-80
2023/05/28 08:04:17;;;;;;;7.60;3.33;;;;;24.20;102036.00;;;;5089766;28;20539;-79
2023/05/28 08:06:44;;;;;;;6.60;3.25;;;;;24.30;102043.00;;;;5089201;28;20623;-79
2023/05/28 08:09:14;;;;;;;14.38;3.40;;;;;24.40;102046.00;;;;5090022;28;20842;-80
2023/05/28 08:11:42;;;;;;;8.52;3.20;;;;;24.50;102049.00;;;;5089949;28;20194;-80
2023/05/28 08:14:09;;;;;;;6.55;3.50;;;;;24.70;102045.00;;;;5088997;28;20198;-79
2023/05/28 08:16:36;;;;;;;5.78;3.35;;;;;24.80;102043.00;;;;5089357;28;20583;-80
2023/05/28 08:19:05;;;;;;;5.47;3.30;;;;;24.90;102038.00;;;;5089325;28;20595;-80
2023/05/28 08:21:33;;;;;;;9.48;3.25;;;;;25.00;102047.00;;;;5089402;28;20709;-79
2023/05/28 08:24:00;;;;;;;5.28;2.72;;;;;25.20;102035.00;;;;5089111;28;20225;-80
2023/05/28 08:26:28;;;;;;;9.07;3.30;;;;;25.30;102035.00;;;;5089276;28;20293;-79
2023/05/28 08:28:55;;;;;;;5.28;3.15;;;;;25.40;102030.00;;;;5088957;28;20202;-80
2023/05/28 08:31:23;;;;;;;9.23;3.70;;;;;25.50;102039.00;;;;5088412;28;20675;-80
2023/05/28 08:33:50;;;;;;;5.60;2.55;;;;;25.60;102027.00;;;;5089456;28;20226;-81
2023/05/28 08:36:19;;;;;;;6.72;2.78;;;;;25.70;102028.00;;;;5089158;28;20209;-80
2023/05/28 08:38:47;;;;;;;6.05;3.45;;;;;25.80;102024.00;;;;5089328;28;20557;-80
2023/05/28 08:41:14;;;;;;;4.88;2.53;;;;;26.00;102017.00;;;;5088885;28;20209;-80
2023/05/28 08:43:42;;;;;;;5.38;2.58;;;;;26.20;102020.00;;;;5088898;28;20226;-79
2023/05/28 08:46:09;;;;;;;4.38;2.40;;;;;26.30;102023.00;;;;5088811;28;20190;-80
2023/05/28 08:48:37;;;;;;;8.40;3.38;;;;;26.50;102031.00;;;;5088460;28;20687;-80
2023/05/28 08:51:06;;;;;;;7.97;2.97;;;;;26.60;102039.00;;;;5088766;28;20218;-80
2023/05/28 08:53:40;;;;;;;4.80;2.75;;;;;26.60;102031.00;;;;5088794;28;20277;-80
2023/05/28 08:56:09;;;;;;;5.78;3.00;;;;;26.70;102035.00;;;;5089824;28;20194;-80
2023/05/28 08:58:39;;;;;;;9.35;2.63;;;;;26.80;102031.00;;;;5089304;28;20202;-80
2023/05/28 09:01:07;;;;;;;7.88;3.20;;;;;26.90;102034.00;;;;5089106;28;20194;-80
2023/05/28 09:03:35;;;;;;;6.38;2.63;;;;;26.90;102032.00;;;;5089232;28;20217;-80
2023/05/28 09:06:03;;;;;;;5.03;2.50;;;;;27.00;102038.00;;;;5089297;28;20803;-80
2023/05/28 09:08:31;;;;;;;3.80;2.85;;;;;27.00;102031.00;;;;5089117;28;20242;-80
2023/05/28 09:11:10;;;;;;;5.20;2.72;;;;;27.00;102028.00;;;;5088808;28;20202;-80
2023/05/28 09:13:42;;;;;;;7.60;2.90;;;;;27.10;102023.00;;;;5088716;28;20190;-80
2023/05/28 09:16:10;;;;;;;7.05;2.78;;;;;27.20;102024.00;;;;5088590;28;20228;-80
2023/05/28 09:18:38;;;;;;;9.73;3.33;;;;;27.20;102026.00;;;;5089358;28;21244;-79
2023/05/28 09:21:10;;;;;;;6.60;3.28;;;;;27.20;102021.00;;;;5088901;28;20198;-80
2023/05/28 09:23:39;;;;;;;8.13;2.92;;;;;27.30;102021.00;;;;5088679;28;20225;-80
2023/05/28 09:26:10;;;;;;;6.18;2.88;;;;;27.20;102024.00;;;;5088898;28;20248;-80
2023/05/28 09:28:42;;;;;;;8.10;2.80;;;;;27.30;102027.00;;;;5088456;28;20198;-80
2023/05/28 09:31:10;;;;;;;5.53;2.50;;;;;27.30;102021.00;;;;5088047;28;20199;-80
2023/05/28 09:33:41;;;;;;;5.80;2.90;;;;;27.40;102022.00;;;;5088817;28;20218;-80
2023/05/28 09:36:09;;;;;;;7.32;2.50;;;;;27.50;102016.00;;;;5089098;28;20205;-79
2023/05/28 09:38:40;;;;;;;5.60;2.95;;;;;27.60;102014.00;;;;5089331;28;20209;-81
2023/05/28 09:41:22;;;;;;;7.25;2.85;;;;;27.60;102022.00;;;;5088353;28;20271;-81
2023/05/28 09:43:58;;;;;;;6.18;2.60;;;;;27.80;102025.00;;;;5088637;28;20244;-81
2023/05/28 09:46:29;;;;;;;3.60;2.50;;;;;27.90;102028.00;;;;5088531;28;20251;-80
2023/05/28 09:48:57;;;;;;;6.18;3.20;;;;;28.00;102025.00;;;;5088827;28;20636;-80
2023/05/28 09:51:28;;;;;;;6.95;3.33;;;;;28.00;102021.00;;;;5087754;28;20222;-81
2023/05/28 09:53:58;;;;;;;5.28;2.80;;;;;28.00;102019.00;;;;5088548;28;20226;-80
2023/05/28 09:56:31;;;;;;;3.97;2.05;;;;;28.00;102027.00;;;;5088014;28;20729;-80
2023/05/28 09:58:59;;;;;;;6.03;2.83;;;;;28.10;102028.00;;;;5088667;28;20210;-80
2023/05/28 10:01:31;;;;;;;7.55;2.78;;;;;28.10;102019.00;;;;5088416;28;20209;-80
2023/05/28 10:04:05;;;;;;;8.55;3.05;;;;;28.10;102020.00;;;;5088329;28;20697;-80
2023/05/28 10:06:35;;;;;;;4.80;2.47;;;;;28.10;102021.00;;;;5088280;28;20206;-81
2023/05/28 10:09:04;;;;;;;6.00;2.70;;;;;28.10;102019.00;;;;5088302;28;20225;-80
2023/05/28 10:11:45;;;;;;;9.48;2.75;;;;;28.00;102015.00;;;;5088311;28;20197;-80
2023/05/28 10:14:13;;;;;;;4.60;2.53;;;;;28.20;102014.00;;;;5088016;28;20221;-80
2023/05/28 10:16:40;;;;;;;6.32;3.15;;;;;28.20;102019.00;;;;5088169;28;20206;-80
2023/05/28 10:19:08;;;;;;;4.85;2.83;;;;;28.20;102027.00;;;;5088305;28;20206;-80
2023/05/28 10:21:36;;;;;;;6.10;2.63;;;;;28.30;102019.00;;;;5088369;28;20198;-79
2023/05/28 10:24:05;;;;;;;5.85;2.90;;;;;28.30;102020.00;;;;5087484;28;20222;-80
2023/05/28 10:26:34;;;;;;;6.43;2.90;;;;;28.40;102021.00;;;;5088213;28;20300;-80
2023/05/28 10:29:06;;;;;;;4.93;2.65;;;;;28.50;102016.00;;;;5088444;28;20718;-80
2023/05/28 10:31:34;;;;;;;6.22;3.10;;;;;28.50;102017.00;;;;5088707;28;20553;-80
2023/05/28 10:34:01;;;;;;;7.18;2.92;;;;;28.50;102016.00;;;;5087550;28;20241;-80
2023/05/28 10:36:28;;;;;;;6.97;2.63;;;;;28.60;102017.00;;;;5088668;28;20202;-81
2023/05/28 10:39:00;;;;;;;7.40;3.40;;;;;28.60;102020.00;;;;5091675;28;20252;-80
2023/05/28 10:41:34;;;;;;;8.32;3.08;;;;;28.60;102020.00;;;;5071879;28;20205;-80
2023/05/28 10:44:07;;;;;;;7.05;2.70;;;;;28.60;102020.00;;;;5071610;28;20712;-81
2023/05/28 10:46:38;;;;;;;6.95;3.10;;;;;28.70;102015.00;;;;5071700;28;20567;-80
2023/05/28 10:49:14;;;;;;;4.40;2.75;;;;;28.70;102009.00;;;;5071732;28;20214;-80
2023/05/28 10:51:53;;;;;;;9.30;3.00;;;;;28.60;102022.00;;;;5072221;28;20219;-80
2023/05/28 10:54:24;;;;;;;7.28;3.03;;;;;28.70;102015.00;;;;5076902;28;20198;-80
2023/05/28 10:57:12;;;;;;;4.85;3.30;;;;;28.60;102017.00;;;;5092192;28;20230;-80
2023/05/28 10:59:44;;;;;;;7.93;2.55;;;;;28.80;102010.00;;;;5091489;28;20199;-80
2023/05/28 11:02:12;;;;;;;6.03;2.60;;;;;28.80;102011.00;;;;5091861;28;20202;-80
2023/05/28 11:04:40;;;;;;;7.38;3.00;;;;;28.80;102020.00;;;;5091826;28;20218;-80
2023/05/28 11:07:08;;;;;;;6.45;3.13;;;;;28.80;102006.00;;;;5091335;28;20259;-81
2023/05/28 11:09:36;;;;;;;9.35;3.17;;;;;28.80;102015.00;;;;5091759;28;20260;-80
2023/05/28 11:12:04;;;;;;;4.78;2.72;;;;;28.70;102020.00;;;;5090763;28;20588;-80
2023/05/28 11:14:37;;;;;;;7.85;3.03;;;;;28.70;102013.00;;;;5090545;28;20210;-80
2023/05/28 11:17:12;;;;;;;5.43;2.67;;;;;28.70;102019.00;;;;5090776;28;20626;-81
2023/05/28 11:19:44;;;;;;;6.85;2.70;;;;;28.70;102017.00;;;;5090944;28;20201;-80
2023/05/28 11:22:11;;;;;;;7.00;3.13;;;;;28.70;102010.00;;;;5090051;28;20206;-80
2023/05/28 11:24:59;;;;;;;6.53;2.88;;;;;28.60;102012.00;;;;5090224;28;20597;-80
2023/05/28 11:27:27;;;;;;;5.75;2.70;;;;;28.70;102010.00;;;;5090717;28;20214;-80
2023/05/28 11:29:57;;;;;;;4.80;2.40;;;;;28.70;102011.00;;;;5090416;28;20202;-80
2023/05/28 11:32:25;;;;;;;3.85;2.70;;;;;28.70;102010.00;;;;5083283;28;20321;-80
2023/05/28 11:34:55;;;;;;;4.63;2.17;;;;;28.70;102017.00;;;;5090967;28;20191;-80
2023/05/28 11:37:27;;;;;;;6.57;3.25;;;;;28.70;102016.00;;;;5090561;28;20194;-80
2023/05/28 11:39:56;;;;;;;4.57;2.85;;;;;28.80;102014.00;;;;5090365;28;20198;-79
2023/05/28 11:42:24;;;;;;;5.45;2.53;;;;;28.80;102011.00;;;;5089660;28;20202;-80
2023/05/28 11:44:52;;;;;;;7.53;3.20;;;;;29.00;102011.00;;;;5091055;28;20226;-80
2023/05/28 11:47:21;;;;;;;5.47;2.88;;;;;29.00;102007.00;;;;5090147;28;20217;-80
2023/05/28 11:49:49;;;;;;;3.90;2.33;;;;;29.10;102021.00;;;;5091200;28;20205;-80
2023/05/28 11:52:18;;;;;;;7.78;2.88;;;;;29.10;102020.00;;;;5089091;28;20504;-82
2023/05/28 11:54:46;;;;;;;4.95;1.98;;;;;29.10;102015.00;;;;5091111;28;20293;-81
2023/05/28 11:57:23;;;;;;;4.35;2.35;;;;;29.10;102022.00;;;;5090108;28;20222;-80
2023/05/28 12:00:06;;;;;;;5.47;2.45;;;;;29.10;102017.00;;;;5089613;28;20304;-81
2023/05/28 12:02:34;;;;;;;5.35;2.65;;;;;29.20;102022.00;;;;5089820;28;20271;-80
2023/05/28 12:05:03;;;;;;;5.38;2.67;;;;;29.20;102020.00;;;;5090235;28;20237;-80
2023/05/28 12:07:32;;;;;;;3.90;2.10;;;;;29.30;102012.00;;;;5089838;28;20186;-79
2023/05/28 12:10:07;;;;;;;5.32;2.28;;;;;29.20;102011.00;;;;5089987;28;20203;-80
2023/05/28 12:12:35;;;;;;;5.30;3.00;;;;;29.30;102014.00;;;;5090169;28;20208;-80